カイロ の空港の天気 - METARとTAF

カイロ国際空港 ( HECA / CAI ) - エジプト [カイロ
飛行場実況気象(Metar)
観測時間08/22 18:30 EET (08/22 16:30 UTC)
風向・風速北北東 6m/s
視程10km以上
天気現象
なし
気温31℃
湿度46%
気圧1009hPa
METARHECA 221630Z 02011KT CAVOK 31/18 Q1009 NOSIG
過去の天気等 Google飛行場航空写真 Wunderground天気予報

過去48時間のMETAR

飛行場予報(TAF)
発表時間: 8/22 13:00 EET (8/22 11:00 UTC)
予報対象時間: 22日14時 EET ~ 23日20時 EET
風向・風速北 5m/s
視程10km以上
なし
23日5時 EET ~ 23日8時 EET に一時的に
風向・風速不定 2m/s
視程4000m
天気現象もや
なし
TAF HECA 221100Z 2212/2318 36010KT CAVOK
TEMPO 2303/2306 VRB03KT 4000 BR NSC